createdAt,value
2022-10-30T00:00:44.513Z,78.30
2022-10-30T00:03:14.157Z,79.50
2022-10-30T00:05:44.394Z,80.83
2022-10-30T00:08:13.799Z,78.10
2022-10-30T00:10:42.865Z,74.73
2022-10-30T00:13:12.912Z,70.90
2022-10-30T00:15:41.177Z,71.67
2022-10-30T00:18:09.384Z,68.47
2022-10-30T00:20:38.170Z,71.10
2022-10-30T00:23:06.845Z,73.33
2022-10-30T00:25:36.703Z,72.43
2022-10-30T00:28:05.381Z,75.10
2022-10-30T00:30:35.967Z,69.87
2022-10-30T00:33:04.746Z,71.43
2022-10-30T00:35:33.239Z,68.10
2022-10-30T00:38:02.183Z,77.27
2022-10-30T00:40:30.882Z,75.90
2022-10-30T00:42:59.010Z,71.53
2022-10-30T00:45:27.352Z,76.17
2022-10-30T00:48:01.745Z,77.43
2022-10-30T00:50:33.305Z,72.37
2022-10-30T00:53:08.299Z,71.70
2022-10-30T00:55:40.011Z,67.60
2022-10-30T00:58:11.957Z,61.43
2022-10-30T01:00:42.809Z,59.63
2022-10-30T01:03:12.975Z,55.07
2022-10-30T01:05:41.678Z,56.40
2022-10-30T01:08:09.871Z,51.20
2022-10-30T01:10:39.017Z,49.07
2022-10-30T01:13:07.705Z,49.70
2022-10-30T01:15:39.354Z,48.70
2022-10-30T01:18:36.137Z,47.80
2022-10-30T01:21:32.420Z,41.87
2022-10-30T01:24:16.045Z,41.53
2022-10-30T01:26:52.183Z,41.97
2022-10-30T01:29:42.267Z,39.73
2022-10-30T01:32:21.368Z,40.83
2022-10-30T01:34:53.816Z,39.83
2022-10-30T01:37:23.868Z,40.80
2022-10-30T01:39:53.622Z,38.47
2022-10-30T01:42:55.051Z,39.77
2022-10-30T01:45:27.092Z,39.17
2022-10-30T01:48:04.685Z,39.77
2022-10-30T01:50:42.257Z,40.80
2022-10-30T01:53:24.111Z,38.00
2022-10-30T01:55:58.259Z,38.87
2022-10-30T01:58:30.107Z,37.67
2022-10-30T02:00:59.891Z,38.30
2022-10-30T02:03:28.654Z,36.97
2022-10-30T02:05:58.237Z,36.63
2022-10-30T02:08:26.433Z,37.47
2022-10-30T02:10:55.492Z,36.60
2022-10-30T02:13:24.448Z,36.87
2022-10-30T02:15:52.649Z,34.30
2022-10-30T02:18:20.792Z,33.20
2022-10-30T02:20:50.360Z,35.33
2022-10-30T02:23:19.221Z,34.67
2022-10-30T02:25:47.462Z,35.20
2022-10-30T02:28:15.646Z,37.33
2022-10-30T02:30:44.916Z,38.03
2022-10-30T02:33:13.251Z,40.30
2022-10-30T02:35:41.478Z,39.17
2022-10-30T02:38:11.036Z,42.83
2022-10-30T02:40:39.196Z,39.83
2022-10-30T02:43:07.403Z,43.77
2022-10-30T02:45:35.604Z,42.17
2022-10-30T02:48:04.016Z,41.73
2022-10-30T02:50:32.419Z,45.30
2022-10-30T02:53:01.132Z,41.10
2022-10-30T02:55:31.017Z,40.80
2022-10-30T02:57:59.476Z,42.93
2022-10-30T03:00:27.893Z,38.70
2022-10-30T03:02:56.961Z,37.97
2022-10-30T03:05:25.244Z,38.97
2022-10-30T03:07:53.437Z,38.00
2022-10-30T03:10:21.607Z,35.97
2022-10-30T03:12:51.447Z,36.47
2022-10-30T03:15:19.703Z,38.00
2022-10-30T03:17:50.031Z,36.23
2022-10-30T03:20:18.487Z,36.23
2022-10-30T03:22:46.654Z,37.13
2022-10-30T03:25:14.845Z,35.80
2022-10-30T03:27:43.027Z,36.70
2022-10-30T03:30:13.539Z,36.23
2022-10-30T03:32:41.694Z,36.33
2022-10-30T03:35:10.160Z,36.47
2022-10-30T03:37:38.311Z,37.10
2022-10-30T03:40:07.525Z,36.77
2022-10-30T03:42:35.677Z,34.93
2022-10-30T03:45:03.885Z,34.17
2022-10-30T03:47:33.444Z,34.67
2022-10-30T03:50:01.689Z,33.57
2022-10-30T03:52:29.972Z,33.40
2022-10-30T03:54:58.100Z,33.00
2022-10-30T03:57:26.276Z,32.03
2022-10-30T03:59:54.718Z,33.17
2022-10-30T04:02:22.913Z,33.20
2022-10-30T04:04:52.482Z,32.37
2022-10-30T04:07:20.587Z,32.50
2022-10-30T04:09:48.740Z,31.97
2022-10-30T04:12:16.913Z,33.93
2022-10-30T04:14:45.095Z,32.30
2022-10-30T04:17:13.272Z,33.27
2022-10-30T04:19:41.450Z,32.20
2022-10-30T04:22:10.981Z,31.73
2022-10-30T04:24:39.942Z,33.73
2022-10-30T04:27:08.556Z,31.83
2022-10-30T04:29:37.863Z,30.73
2022-10-30T04:32:06.397Z,32.27
2022-10-30T04:34:35.085Z,32.37
2022-10-30T04:37:04.907Z,32.07
2022-10-30T04:39:34.446Z,32.83
2022-10-30T04:42:02.656Z,32.27
2022-10-30T04:44:30.805Z,32.50
2022-10-30T04:46:59.135Z,32.40
2022-10-30T04:49:27.347Z,32.17
2022-10-30T04:51:55.641Z,32.07
2022-10-30T04:54:23.789Z,30.73
2022-10-30T04:56:53.395Z,30.20
2022-10-30T04:59:21.633Z,31.40
2022-10-30T05:01:49.869Z,30.37
2022-10-30T05:04:18.077Z,29.70
2022-10-30T05:06:46.247Z,29.10
2022-10-30T05:09:14.371Z,29.03
2022-10-30T05:11:42.548Z,28.40
2022-10-30T05:14:12.335Z,26.90
2022-10-30T05:16:40.492Z,27.43
2022-10-30T05:19:08.654Z,26.70
2022-10-30T05:21:36.897Z,27.07
2022-10-30T05:24:05.341Z,29.17
2022-10-30T05:26:33.556Z,29.50
2022-10-30T05:29:01.854Z,31.77
2022-10-30T05:31:31.424Z,33.10
2022-10-30T05:34:01.787Z,33.83
2022-10-30T05:36:32.848Z,31.47
2022-10-30T05:39:02.998Z,30.47
2022-10-30T05:41:31.567Z,28.77
2022-10-30T05:43:59.894Z,28.03
2022-10-30T05:46:28.069Z,26.50
2022-10-30T05:48:57.606Z,27.03
2022-10-30T05:51:25.845Z,24.97
2022-10-30T05:53:54.161Z,25.13
2022-10-30T05:56:22.372Z,25.60
2022-10-30T05:58:50.836Z,24.63
2022-10-30T06:01:19.648Z,27.10
2022-10-30T06:03:48.033Z,27.60
2022-10-30T06:06:17.606Z,27.07
2022-10-30T06:08:45.757Z,27.40
2022-10-30T06:11:13.944Z,29.67
2022-10-30T06:13:42.108Z,25.93
2022-10-30T06:16:10.287Z,25.73
2022-10-30T06:18:38.437Z,25.70
2022-10-30T06:21:06.995Z,23.47
2022-10-30T06:23:36.773Z,25.03
2022-10-30T06:26:05.009Z,25.93
2022-10-30T06:28:33.170Z,26.23
2022-10-30T06:31:01.386Z,25.87
2022-10-30T06:33:29.523Z,23.63
2022-10-30T06:35:57.646Z,25.40
2022-10-30T06:38:25.948Z,20.80
2022-10-30T06:40:55.465Z,19.50
2022-10-30T06:43:23.555Z,18.70
2022-10-30T06:45:51.758Z,18.90
2022-10-30T06:48:20.007Z,15.77
2022-10-30T06:50:48.690Z,15.53
2022-10-30T06:53:17.196Z,14.63
2022-10-30T06:55:45.347Z,15.63
2022-10-30T06:58:14.857Z,14.00
2022-10-30T07:00:43.034Z,14.93
2022-10-30T07:03:11.267Z,13.47
2022-10-30T07:05:39.424Z,12.13
2022-10-30T07:08:07.693Z,17.90
2022-10-30T07:10:36.039Z,19.10
2022-10-30T07:13:04.240Z,20.03
2022-10-30T07:15:33.854Z,21.20
2022-10-30T07:18:04.387Z,21.53
2022-10-30T07:20:34.695Z,20.43
2022-10-30T07:23:03.556Z,18.63
2022-10-30T07:25:32.002Z,17.67
2022-10-30T07:28:01.346Z,19.83
2022-10-30T07:30:30.283Z,19.87
2022-10-30T07:33:01.671Z,21.03
2022-10-30T07:35:30.760Z,17.33
2022-10-30T07:38:03.630Z,16.10
2022-10-30T07:40:32.277Z,16.77
2022-10-30T07:43:02.399Z,15.67
2022-10-30T07:45:31.432Z,15.03
2022-10-30T07:48:01.430Z,14.33
2022-10-30T07:50:30.232Z,17.87
2022-10-30T07:52:58.689Z,14.70
2022-10-30T07:55:26.895Z,16.03
2022-10-30T07:57:55.077Z,14.93
2022-10-30T08:00:23.542Z,20.03
2022-10-30T08:02:52.528Z,20.77
2022-10-30T08:05:27.033Z,23.13
2022-10-30T08:07:59.048Z,20.10
2022-10-30T08:10:27.556Z,17.53
2022-10-30T08:12:55.769Z,19.03
2022-10-30T08:15:24.504Z,17.23
2022-10-30T08:17:52.998Z,23.20
2022-10-30T08:20:24.654Z,19.13
2022-10-30T08:22:53.879Z,15.48
2022-10-30T08:25:24.948Z,15.03
2022-10-30T08:27:55.029Z,17.03
2022-10-30T08:30:23.848Z,22.77
2022-10-30T08:32:52.255Z,18.60
2022-10-30T08:35:20.787Z,17.40
2022-10-30T08:37:52.449Z,14.80
2022-10-30T08:40:20.880Z,13.77
2022-10-30T08:42:52.630Z,16.07
2022-10-30T08:45:22.485Z,17.13
2022-10-30T08:47:58.840Z,15.47
2022-10-30T08:50:27.547Z,19.33
2022-10-30T08:52:57.752Z,14.45
2022-10-30T08:55:26.458Z,14.95
2022-10-30T08:57:54.885Z,16.42
2022-10-30T09:00:23.490Z,17.27
2022-10-30T09:02:51.977Z,14.45
2022-10-30T09:05:20.481Z,15.27
2022-10-30T09:07:49.207Z,14.63
2022-10-30T09:10:18.902Z,15.05
2022-10-30T09:12:47.317Z,18.52
2022-10-30T09:15:15.719Z,20.48
2022-10-30T09:17:44.117Z,16.63
2022-10-30T09:20:12.728Z,18.83
2022-10-30T09:22:42.661Z,18.10
2022-10-30T09:25:11.031Z,15.13
2022-10-30T09:27:40.997Z,14.10
2022-10-30T09:30:10.152Z,13.55
2022-10-30T09:32:38.347Z,15.20
2022-10-30T09:35:07.154Z,14.48
2022-10-30T09:37:36.206Z,14.70
2022-10-30T09:40:04.800Z,13.60
2022-10-30T09:42:53.173Z,13.90
2022-10-30T09:45:58.088Z,10.85
2022-10-30T09:49:00.026Z,13.43
2022-10-30T09:51:56.685Z,14.23
2022-10-30T09:54:37.109Z,14.35
2022-10-30T09:57:14.195Z,15.65
2022-10-30T09:59:47.509Z,13.35
2022-10-30T10:02:31.683Z,12.73
2022-10-30T10:05:02.076Z,12.73
2022-10-30T10:07:32.032Z,16.25
2022-10-30T10:10:02.842Z,13.85
2022-10-30T10:12:33.926Z,13.88
2022-10-30T10:15:10.885Z,15.15
2022-10-30T10:17:43.150Z,12.35
2022-10-30T10:20:18.282Z,15.00
2022-10-30T10:22:49.910Z,15.43
2022-10-30T10:25:20.216Z,14.00
2022-10-30T10:28:00.929Z,16.73
2022-10-30T10:30:36.964Z,18.35
2022-10-30T10:33:30.888Z,16.60
2022-10-30T10:36:10.062Z,14.65
2022-10-30T10:38:53.058Z,13.80
2022-10-30T10:41:32.225Z,11.77
2022-10-30T10:44:17.800Z,13.75
2022-10-30T10:47:07.011Z,12.48
2022-10-30T10:49:54.042Z,13.30
2022-10-30T10:52:24.916Z,12.85
2022-10-30T10:54:55.637Z,10.82
2022-10-30T10:57:27.240Z,13.05
2022-10-30T10:59:58.759Z,12.75
2022-10-30T11:02:33.249Z,9.68
2022-10-30T11:05:04.111Z,11.05
2022-10-30T11:07:34.194Z,12.75
2022-10-30T11:10:02.839Z,9.98
2022-10-30T11:12:35.392Z,11.50
2022-10-30T11:15:08.889Z,10.10
2022-10-30T11:17:42.362Z,12.07
2022-10-30T11:20:16.250Z,11.65
2022-10-30T11:22:46.577Z,14.40
2022-10-30T11:25:25.343Z,13.02
2022-10-30T11:27:57.796Z,13.63
2022-10-30T11:30:28.658Z,12.88
2022-10-30T11:32:58.885Z,14.43
2022-10-30T11:35:27.444Z,13.00
2022-10-30T11:38:13.346Z,13.85
2022-10-30T11:40:42.405Z,14.73
2022-10-30T11:43:11.187Z,12.57
2022-10-30T11:45:42.164Z,15.93
2022-10-30T11:48:13.802Z,15.40
2022-10-30T11:50:47.844Z,16.85
2022-10-30T11:53:21.727Z,16.08
2022-10-30T11:55:51.483Z,15.32
2022-10-30T11:58:24.279Z,16.13
2022-10-30T12:01:01.236Z,18.13
2022-10-30T12:03:31.757Z,16.58
2022-10-30T12:06:10.346Z,15.13
2022-10-30T12:08:38.996Z,15.18
2022-10-30T12:11:07.828Z,17.88
2022-10-30T12:13:39.709Z,17.45
2022-10-30T12:16:10.203Z,21.02
2022-10-30T12:18:41.390Z,24.42
2022-10-30T12:21:10.200Z,24.40
2022-10-30T12:23:38.898Z,23.08
2022-10-30T12:26:11.381Z,26.63
2022-10-30T12:28:40.583Z,24.85
2022-10-30T12:31:12.041Z,22.88
2022-10-30T12:33:44.391Z,24.00
2022-10-30T12:36:15.028Z,23.95
2022-10-30T12:38:45.497Z,22.40
2022-10-30T12:41:17.397Z,26.00
2022-10-30T12:43:47.793Z,24.38
2022-10-30T12:46:23.686Z,25.55
2022-10-30T12:48:57.024Z,27.00
2022-10-30T12:51:31.052Z,25.80
2022-10-30T12:54:04.113Z,30.70
2022-10-30T12:56:34.853Z,32.45
2022-10-30T12:59:10.749Z,29.10
2022-10-30T13:01:43.753Z,28.67
2022-10-30T13:04:17.856Z,32.03
2022-10-30T13:06:51.489Z,32.42
2022-10-30T13:09:21.250Z,32.80
2022-10-30T13:11:52.983Z,31.70
2022-10-30T13:14:23.793Z,33.22
2022-10-30T13:16:53.303Z,38.13
2022-10-30T13:19:23.153Z,37.83
2022-10-30T13:21:56.048Z,41.85
2022-10-30T13:24:29.365Z,41.80
2022-10-30T13:26:59.596Z,45.40
2022-10-30T13:29:31.221Z,42.88
2022-10-30T13:32:08.918Z,39.13
2022-10-30T13:34:43.156Z,41.88
2022-10-30T13:37:14.641Z,43.05
2022-10-30T13:39:44.578Z,40.55
2022-10-30T13:42:20.124Z,42.55
2022-10-30T13:44:52.633Z,40.88
2022-10-30T13:47:26.621Z,39.10
2022-10-30T13:50:03.815Z,41.85
2022-10-30T13:52:34.052Z,43.03
2022-10-30T13:55:04.373Z,37.65
2022-10-30T13:57:36.397Z,35.50
2022-10-30T14:00:08.456Z,36.08
2022-10-30T14:02:42.730Z,41.53
2022-10-30T14:05:18.218Z,34.65
2022-10-30T14:07:48.492Z,41.45
2022-10-30T14:10:19.719Z,44.22
2022-10-30T14:12:51.793Z,44.55
2022-10-30T14:15:28.424Z,44.22
2022-10-30T14:18:15.566Z,38.22
2022-10-30T14:20:46.741Z,36.00
2022-10-30T14:23:16.898Z,39.85
2022-10-30T14:25:45.330Z,38.47
2022-10-30T14:28:21.306Z,34.40
2022-10-30T14:30:49.753Z,37.58
2022-10-30T14:33:33.043Z,38.90
2022-10-30T14:36:19.857Z,35.55
2022-10-30T14:38:55.197Z,38.33
2022-10-30T14:41:26.783Z,37.17
2022-10-30T14:44:05.339Z,35.15
2022-10-30T14:46:36.799Z,35.67
2022-10-30T14:49:11.778Z,38.47
2022-10-30T14:51:43.036Z,34.00
2022-10-30T14:54:18.340Z,35.78
2022-10-30T14:56:48.209Z,36.05
2022-10-30T14:59:26.861Z,35.65
2022-10-30T15:02:02.667Z,32.63
2022-10-30T15:04:37.365Z,33.97
2022-10-30T15:07:10.825Z,34.70
2022-10-30T15:09:46.383Z,33.90
2022-10-30T15:15:01.972Z,32.78
2022-10-30T15:17:32.243Z,34.10
2022-10-30T15:20:02.243Z,30.15
2022-10-30T15:22:32.225Z,30.92
2022-10-30T15:25:00.744Z,34.35
2022-10-30T15:27:29.630Z,32.25
2022-10-30T15:30:01.365Z,30.15
2022-10-30T15:32:30.019Z,32.20
2022-10-30T15:35:00.174Z,30.80
2022-10-30T15:37:29.195Z,32.10
2022-10-30T15:40:18.328Z,32.28
2022-10-30T15:42:47.166Z,32.35
2022-10-30T15:45:19.191Z,31.70
2022-10-30T15:47:49.723Z,28.65
2022-10-30T15:50:20.058Z,31.02
2022-10-30T15:52:48.548Z,34.10
2022-10-30T15:55:19.269Z,33.47
2022-10-30T15:58:02.822Z,29.70
2022-10-30T16:00:33.521Z,32.22
2022-10-30T16:03:05.967Z,35.67
2022-10-30T16:05:34.783Z,31.88
2022-10-30T16:08:04.135Z,34.08
2022-10-30T16:10:35.602Z,31.58
2022-10-30T16:13:04.575Z,32.08
2022-10-30T16:15:34.433Z,32.65
2022-10-30T16:18:10.622Z,34.45
2022-10-30T16:20:42.429Z,34.95
2022-10-30T16:23:11.006Z,35.30
2022-10-30T16:25:46.737Z,33.70
2022-10-30T16:28:25.720Z,35.95
2022-10-30T16:30:54.304Z,35.42
2022-10-30T16:33:25.686Z,37.30
2022-10-30T16:35:55.843Z,36.45
2022-10-30T16:38:24.896Z,38.95
2022-10-30T16:40:54.813Z,37.63
2022-10-30T16:43:27.167Z,36.17
2022-10-30T16:45:55.907Z,38.00
2022-10-30T16:48:28.088Z,36.53
2022-10-30T16:51:03.597Z,37.13
2022-10-30T16:53:32.801Z,36.80
2022-10-30T16:56:02.903Z,35.80
2022-10-30T16:58:32.575Z,41.47
2022-10-30T17:01:06.568Z,40.03
2022-10-30T17:03:37.609Z,38.97
2022-10-30T17:06:07.531Z,40.55
2022-10-30T17:08:41.584Z,40.42
2022-10-30T17:11:17.946Z,40.85
2022-10-30T17:13:58.949Z,36.88
2022-10-30T17:16:28.154Z,41.08
2022-10-30T17:18:57.511Z,40.10
2022-10-30T17:21:29.201Z,39.63
2022-10-30T17:23:59.237Z,39.78
2022-10-30T17:26:30.160Z,39.70
2022-10-30T17:28:58.584Z,40.28
2022-10-30T17:31:43.746Z,42.65
2022-10-30T17:34:16.298Z,40.50
2022-10-30T17:36:45.191Z,40.42
2022-10-30T17:39:13.860Z,41.90
2022-10-30T17:41:44.359Z,42.65
2022-10-30T17:44:18.548Z,38.50
2022-10-30T17:46:47.038Z,42.58
2022-10-30T17:49:22.841Z,44.85
2022-10-30T17:51:51.295Z,46.67
2022-10-30T17:54:19.724Z,43.58
2022-10-30T17:56:49.589Z,46.30
2022-10-30T17:59:18.343Z,42.38
2022-10-30T18:01:49.086Z,40.72
2022-10-30T18:04:21.135Z,43.88
2022-10-30T18:06:49.824Z,43.45
2022-10-30T18:09:18.282Z,42.10
2022-10-30T18:11:46.723Z,43.08
2022-10-30T18:14:16.497Z,42.83
2022-10-30T18:16:44.898Z,53.83
2022-10-30T18:19:13.626Z,55.90
2022-10-30T18:21:42.066Z,69.78
2022-10-30T18:24:12.194Z,76.57
2022-10-30T18:26:41.134Z,78.07
2022-10-30T18:29:09.710Z,74.57
2022-10-30T18:31:39.802Z,74.78
2022-10-30T18:34:12.344Z,74.72
2022-10-30T18:36:40.747Z,74.82
2022-10-30T18:39:10.893Z,79.57
2022-10-30T18:41:40.516Z,79.95
2022-10-30T18:44:08.954Z,72.82
2022-10-30T18:46:38.811Z,76.72
2022-10-30T18:49:07.303Z,87.25
2022-10-30T18:51:36.016Z,80.82
2022-10-30T18:54:04.505Z,82.10
2022-10-30T18:56:33.521Z,84.13
2022-10-30T18:59:02.700Z,83.95
2022-10-30T19:01:32.284Z,78.07
2022-10-30T19:04:03.800Z,81.18
2022-10-30T19:06:34.315Z,75.20
2022-10-30T19:09:03.106Z,77.50
2022-10-30T19:11:32.129Z,69.88
2022-10-30T19:14:00.956Z,82.47
2022-10-30T19:16:29.474Z,77.85
2022-10-30T19:18:57.904Z,83.45
2022-10-30T19:21:28.091Z,76.28
2022-10-30T19:23:56.678Z,75.00
2022-10-30T19:26:25.117Z,77.32
2022-10-30T19:28:53.563Z,72.45
2022-10-30T19:31:22.114Z,74.25
2022-10-30T19:33:56.149Z,74.05
2022-10-30T19:36:31.292Z,74.50
2022-10-30T19:39:04.272Z,72.85
2022-10-30T19:41:37.129Z,72.03
2022-10-30T19:44:05.880Z,74.63
2022-10-30T19:46:34.438Z,75.93
2022-10-30T19:49:14.148Z,78.43
2022-10-30T19:51:44.052Z,79.82
2022-10-30T19:54:12.514Z,76.68
2022-10-30T19:56:42.474Z,79.40
2022-10-30T19:59:11.387Z,77.45
2022-10-30T20:01:41.612Z,78.57
2022-10-30T20:04:10.366Z,78.78
2022-10-30T20:06:38.872Z,71.63
2022-10-30T20:09:10.867Z,74.60
2022-10-30T20:11:39.281Z,73.68
2022-10-30T20:14:07.709Z,75.25
2022-10-30T20:16:36.195Z,78.55
2022-10-30T20:19:05.933Z,77.72
2022-10-30T20:21:35.593Z,77.82
2022-10-30T20:24:05.030Z,80.95
2022-10-30T20:26:34.848Z,77.18
2022-10-30T20:29:04.189Z,76.38
2022-10-30T20:31:32.656Z,76.57
2022-10-30T20:34:01.086Z,81.25
2022-10-30T20:36:29.487Z,69.72
2022-10-30T20:38:57.961Z,71.90
2022-10-30T20:41:27.308Z,72.45
2022-10-30T20:43:57.134Z,74.32
2022-10-30T20:46:25.586Z,78.93
2022-10-30T20:48:54.042Z,78.78
2022-10-30T20:51:22.605Z,82.83
2022-10-30T20:53:51.161Z,76.20
2022-10-30T20:56:19.546Z,77.60
2022-10-30T20:58:47.947Z,76.95
2022-10-30T21:01:17.943Z,75.60
2022-10-30T21:03:46.837Z,79.05
2022-10-30T21:06:15.778Z,75.80
2022-10-30T21:08:44.304Z,74.65
2022-10-30T21:11:12.757Z,79.72
2022-10-30T21:13:41.183Z,78.18
2022-10-30T21:16:10.691Z,88.65
2022-10-30T21:18:40.497Z,95.38
2022-10-30T21:21:11.622Z,116.85
2022-10-30T21:23:40.319Z,118.18
2022-10-30T21:26:10.965Z,123.28
2022-10-30T21:28:39.590Z,132.73
2022-10-30T21:31:08.657Z,125.05
2022-10-30T21:33:38.065Z,127.20
2022-10-30T21:36:12.361Z,127.18
2022-10-30T21:38:42.932Z,126.05
2022-10-30T21:41:12.237Z,127.07
2022-10-30T21:43:40.750Z,124.53
2022-10-30T21:46:09.550Z,115.65
2022-10-30T21:48:37.969Z,126.10
2022-10-30T21:51:12.370Z,115.43
2022-10-30T21:53:41.146Z,117.80
2022-10-30T21:56:11.242Z,119.50
2022-10-30T21:58:39.773Z,121.20
2022-10-30T22:01:08.785Z,119.53
2022-10-30T22:03:37.228Z,125.07
2022-10-30T22:06:09.328Z,122.43
2022-10-30T22:08:39.439Z,120.17
2022-10-30T22:11:08.461Z,121.57
2022-10-30T22:13:37.289Z,118.53
2022-10-30T22:16:06.227Z,115.87
2022-10-30T22:18:34.675Z,112.47
2022-10-30T22:21:03.617Z,117.28
2022-10-30T22:23:32.401Z,117.05
2022-10-30T22:26:03.759Z,111.57
2022-10-30T22:28:33.524Z,123.73
2022-10-30T22:31:05.486Z,125.05
2022-10-30T22:33:34.185Z,122.53
2022-10-30T22:36:06.704Z,120.43
2022-10-30T22:38:35.326Z,115.93
2022-10-30T22:41:12.691Z,120.50
2022-10-30T22:43:41.162Z,115.75
2022-10-30T22:46:09.703Z,116.90
2022-10-30T22:48:38.222Z,117.77
2022-10-30T22:51:13.299Z,110.17
2022-10-30T22:53:45.568Z,109.50
2022-10-30T22:56:17.257Z,107.93
2022-10-30T22:58:46.159Z,107.20
2022-10-30T23:01:18.366Z,107.40
2022-10-30T23:03:47.039Z,103.10
2022-10-30T23:06:15.576Z,143.97
2022-10-30T23:08:44.291Z,144.88
2022-10-30T23:11:12.911Z,162.57
2022-10-30T23:13:42.929Z,157.60
2022-10-30T23:16:13.109Z,162.30
2022-10-30T23:18:41.633Z,170.77
2022-10-30T23:21:11.948Z,159.10
2022-10-30T23:23:41.011Z,167.07
2022-10-30T23:26:10.709Z,156.63
2022-10-30T23:28:39.187Z,150.48
2022-10-30T23:31:09.729Z,146.30
2022-10-30T23:33:38.144Z,135.00
2022-10-30T23:36:07.552Z,136.97
2022-10-30T23:38:35.984Z,127.37
2022-10-30T23:41:04.414Z,122.67
2022-10-30T23:43:32.858Z,121.60
2022-10-30T23:46:01.319Z,124.47
2022-10-30T23:48:31.106Z,122.33
2022-10-30T23:50:59.811Z,114.17
2022-10-30T23:53:28.424Z,112.30
2022-10-30T23:55:56.843Z,109.07
2022-10-30T23:58:25.261Z,103.07
